Time;durP1;ratioP1;P1;durP2;ratioP2;P2;SDS_P1;SDS_P2;PMS_P1;PMS_P2;Temp;Humidity;BMP_temperature;BMP_pressure;BME280_temperature;BME280_humidity;BME280_pressure;Samples;Min_cycle;Max_cycle;Signal;HPM_P1;HPM_P2
2022/12/26 00:00:39;;;;;;;20.98;9.40;;;10.30;92.00;;;;;;9183612;19;20018;-68
2022/12/26 00:03:43;;;;;;;16.83;9.43;;;10.30;92.00;;;;;;9176133;19;20022;-68
2022/12/26 00:06:50;;;;;;;16.13;8.48;;;10.30;92.00;;;;;;9183493;19;20006;-69
2022/12/26 00:09:53;;;;;;;17.40;9.15;;;10.30;92.00;;;;;;9181593;19;20011;-68
2022/12/26 00:12:57;;;;;;;15.38;8.32;;;10.30;92.00;;;;;;9181829;19;20082;-67
2022/12/26 00:16:22;;;;;;;17.97;8.73;;;10.30;92.00;;;;;;9182494;19;20344;-68
2022/12/26 00:19:26;;;;;;;15.43;8.48;;;10.30;92.00;;;;;;9182403;19;20470;-68
2022/12/26 00:22:31;;;;;;;16.85;8.98;;;10.30;92.00;;;;;;9183123;19;20003;-68
2022/12/26 00:25:35;;;;;;;14.98;8.45;;;10.30;92.00;;;;;;9179995;19;20021;-69
2022/12/26 00:28:39;;;;;;;18.48;8.82;;;10.40;92.10;;;;;;9182088;19;20022;-69
2022/12/26 00:31:43;;;;;;;15.63;8.32;;;10.30;92.10;;;;;;9180615;19;20017;-68
2022/12/26 00:34:47;;;;;;;16.80;8.55;;;10.40;92.10;;;;;;9177964;19;20018;-68
2022/12/26 00:37:53;;;;;;;16.42;8.63;;;10.40;92.10;;;;;;9181163;19;20499;-67
2022/12/26 00:40:56;;;;;;;17.30;8.95;;;10.40;92.10;;;;;;9180452;19;20354;-69
2022/12/26 00:44:00;;;;;;;16.92;8.57;;;10.30;92.10;;;;;;9182517;19;20014;-68
2022/12/26 00:47:04;;;;;;;19.08;10.30;;;10.40;92.10;;;;;;9180410;19;20015;-69
2022/12/26 00:50:09;;;;;;;16.45;8.90;;;10.30;92.10;;;;;;9182596;19;20015;-70
2022/12/26 00:53:19;;;;;;;19.98;10.20;;;10.30;92.30;;;;;;9180735;19;20014;-69
2022/12/26 00:56:23;;;;;;;19.90;10.30;;;10.30;92.10;;;;;;9181459;19;20040;-69
2022/12/26 00:59:27;;;;;;;;;;;10.40;92.10;;;;;;9183657;19;20010;-69
2022/12/26 01:02:39;;;;;;;15.07;8.13;;;10.40;92.10;;;;;;9176717;19;20336;-69
2022/12/26 01:05:45;;;;;;;22.92;10.40;;;10.40;92.10;;;;;;9174708;19;20023;-69
2022/12/26 01:08:50;;;;;;;22.65;11.20;;;10.40;92.10;;;;;;9181309;19;20519;-69
2022/12/26 01:11:54;;;;;;;24.70;11.52;;;10.40;92.10;;;;;;9179939;19;20368;-68
2022/12/26 01:14:58;;;;;;;23.35;12.13;;;10.40;92.10;;;;;;9176173;19;20014;-68
2022/12/26 01:18:02;;;;;;;24.10;12.20;;;10.40;92.10;;;;;;9179379;19;20049;-69
2022/12/26 01:21:07;;;;;;;;;;;10.40;92.10;;;;;;9180971;19;20011;-69
2022/12/26 01:24:12;;;;;;;26.50;12.48;;;10.40;92.10;;;;;;9180026;19;19990;-69
2022/12/26 01:27:16;;;;;;;24.35;12.77;;;10.40;92.10;;;;;;9180544;19;20023;-69
2022/12/26 01:30:20;;;;;;;22.33;12.52;;;10.40;92.10;;;;;;9179228;19;20109;-69
2022/12/26 01:33:24;;;;;;;;;;;10.40;92.10;;;;;;9180866;19;20022;-68
2022/12/26 01:36:27;;;;;;;24.92;12.30;;;10.40;92.10;;;;;;9181134;19;19926;-68
2022/12/26 01:39:33;;;;;;;22.45;11.85;;;10.40;92.10;;;;;;9179758;19;20413;-69
2022/12/26 01:42:39;;;;;;;24.17;12.20;;;10.40;92.10;;;;;;9180222;19;20015;-69
2022/12/26 01:45:46;;;;;;;25.38;12.73;;;10.40;92.10;;;;;;9179069;19;20050;-69
2022/12/26 01:48:51;;;;;;;21.42;11.73;;;10.40;92.10;;;;;;9176637;19;20678;-69
2022/12/26 01:52:01;;;;;;;20.58;11.55;;;10.40;92.10;;;;;;9176683;19;20093;-68
2022/12/26 01:55:11;;;;;;;26.58;13.00;;;10.40;92.10;;;;;;9175522;19;20015;-69
2022/12/26 01:58:22;;;;;;;23.90;12.60;;;10.40;92.20;;;;;;9173723;19;20360;-69
2022/12/26 02:01:29;;;;;;;22.73;11.98;;;10.40;92.20;;;;;;9177845;19;20370;-69
2022/12/26 02:08:07;;;;;;;21.00;11.88;;;10.40;92.20;;;;;;9176268;19;20015;-69
2022/12/26 02:11:18;;;;;;;20.05;11.65;;;10.40;92.20;;;;;;9178061;19;20379;-69
2022/12/26 02:14:22;;;;;;;23.02;12.30;;;10.40;92.20;;;;;;9174900;19;20026;-69
2022/12/26 02:17:26;;;;;;;;;;;10.40;92.20;;;;;;9181201;19;20014;-69
2022/12/26 02:20:38;;;;;;;22.42;12.27;;;10.40;92.20;;;;;;9177775;19;20285;-69
2022/12/26 02:24:11;;;;;;;27.42;12.57;;;10.40;92.10;;;;;;9180129;19;20031;-69
2022/12/26 02:27:45;;;;;;;25.63;13.95;;;10.40;92.20;;;;;;9178126;19;20040;-69
2022/12/26 02:30:57;;;;;;;24.08;12.60;;;10.30;92.20;;;;;;9179371;19;20013;-69
2022/12/26 02:34:10;;;;;;;24.35;13.93;;;10.40;92.20;;;;;;9175635;19;20010;-69
2022/12/26 02:37:24;;;;;;;21.33;12.77;;;10.40;92.20;;;;;;9179409;19;20014;-67
2022/12/26 02:40:47;;;;;;;24.02;12.93;;;10.40;92.20;;;;;;9179431;19;20452;-67
2022/12/26 02:47:01;;;;;;;30.02;14.93;;;10.40;92.20;;;;;;9177460;19;20046;-68
2022/12/26 02:47:37;;;;;;;27.55;14.20;;;10.40;92.20;;;;;;9177253;19;20014;-68
2022/12/26 03:14:27;;;;;;;33.28;14.70;;;10.40;92.30;;;;;;9170729;19;20019;-69
2022/12/26 03:17:34;;;;;;;28.70;14.70;;;10.40;92.20;;;;;;9171196;19;20014;-69
2022/12/26 03:20:40;;;;;;;34.55;14.43;;;10.40;92.20;;;;;;9178474;19;20017;-69
2022/12/26 03:23:47;;;;;;;34.35;13.55;;;10.40;92.20;;;;;;9177696;19;20026;-70
2022/12/26 03:26:52;;;;;;;33.33;14.15;;;10.40;92.20;;;;;;9175871;19;20017;-68
2022/12/26 03:36:43;;;;;;;37.78;15.85;;;10.40;92.20;;;;;;9176151;19;20520;-69
2022/12/26 04:20:39;;;;;;;33.60;15.02;;;10.40;92.20;;;;;;9181908;19;20044;-69
2022/12/26 04:44:07;;;;;;;27.98;14.95;;;10.30;92.20;;;;;;9181530;19;20023;-68
2022/12/26 04:47:12;;;;;;;31.13;15.20;;;10.20;92.10;;;;;;9180183;19;20053;-69
2022/12/26 04:50:14;;;;;;;31.48;16.92;;;10.30;92.20;;;;;;9183194;19;20014;-67
2022/12/26 04:53:18;;;;;;;29.17;14.82;;;10.20;92.10;;;;;;9181652;19;20036;-70
2022/12/26 04:56:22;;;;;;;27.52;14.38;;;10.20;92.20;;;;;;9182484;19;20006;-69
2022/12/26 04:59:28;;;;;;;27.23;13.77;;;10.20;92.20;;;;;;9183003;19;20018;-69
2022/12/26 05:12:28;;;;;;;28.50;15.52;;;10.10;92.20;;;;;;9180581;19;20055;-69
2022/12/26 05:28:40;;;;;;;28.17;15.35;;;10.10;92.20;;;;;;9177351;19;20028;-69
2022/12/26 05:28:57;;;;;;;27.20;14.95;;;10.00;92.20;;;;;;9180277;19;20468;-68
2022/12/26 05:32:03;;;;;;;27.15;15.23;;;10.00;92.20;;;;;;9179605;19;20010;-68
2022/12/26 05:35:06;;;;;;;29.08;14.45;;;10.00;92.20;;;;;;9179329;19;20022;-68
2022/12/26 05:38:11;;;;;;;32.08;17.70;;;10.00;92.20;;;;;;9182000;19;20014;-68
2022/12/26 05:41:15;;;;;;;30.40;15.40;;;10.00;92.20;;;;;;9178436;19;20019;-68
2022/12/26 05:44:19;;;;;;;26.27;14.80;;;9.90;92.20;;;;;;9181264;19;20489;-68
2022/12/26 05:47:24;;;;;;;31.95;16.80;;;10.00;92.20;;;;;;9180647;19;20006;-67
2022/12/26 05:50:29;;;;;;;31.80;16.60;;;9.90;92.10;;;;;;9181264;19;20010;-68
2022/12/26 05:53:33;;;;;;;29.73;16.27;;;9.90;92.10;;;;;;9179501;19;20022;-70
2022/12/26 05:56:37;;;;;;;29.92;17.08;;;9.90;92.20;;;;;;9180182;19;20489;-70
2022/12/26 05:59:42;;;;;;;37.65;18.60;;;9.90;92.20;;;;;;9178629;19;20010;-70
2022/12/26 06:02:47;;;;;;;34.17;17.75;;;9.90;92.20;;;;;;9176256;19;20031;-69
2022/12/26 06:05:51;;;;;;;30.00;17.35;;;9.80;92.10;;;;;;9176174;19;20022;-69
2022/12/26 06:08:56;;;;;;;33.75;18.55;;;9.80;92.10;;;;;;9179537;19;20015;-71
2022/12/26 06:12:00;;;;;;;31.13;18.52;;;9.80;92.10;;;;;;9180495;19;20083;-69
2022/12/26 06:15:05;;;;;;;35.70;19.15;;;9.80;92.10;;;;;;9176965;19;20049;-69
2022/12/26 06:18:10;;;;;;;35.90;18.17;;;9.80;92.10;;;;;;9179999;19;20018;-69
2022/12/26 06:21:16;;;;;;;32.92;18.60;;;9.80;92.10;;;;;;9178294;19;20018;-69
2022/12/26 06:24:20;;;;;;;33.53;18.13;;;9.80;92.10;;;;;;9175430;19;20015;-69
2022/12/26 06:27:24;;;;;;;31.40;17.73;;;9.80;92.10;;;;;;9178205;19;20056;-69
2022/12/26 06:30:28;;;;;;;32.88;19.63;;;9.70;92.10;;;;;;9177828;19;20043;-70
2022/12/26 06:33:34;;;;;;;33.50;19.52;;;9.70;92.10;;;;;;9176945;19;20025;-69
2022/12/26 06:36:38;;;;;;;35.13;19.15;;;9.70;92.10;;;;;;9178083;19;20026;-68
2022/12/26 06:39:41;;;;;;;33.50;18.88;;;9.70;92.10;;;;;;9175711;19;20018;-69
2022/12/26 06:42:45;;;;;;;28.55;17.35;;;9.60;92.10;;;;;;9178183;19;20010;-68
2022/12/26 06:45:55;;;;;;;34.70;17.08;;;9.70;92.10;;;;;;9177372;19;20023;-69
2022/12/26 06:49:01;;;;;;;28.92;17.02;;;9.60;92.10;;;;;;9179451;19;20022;-69
2022/12/26 06:52:06;;;;;;;32.95;17.10;;;9.60;92.10;;;;;;9178251;19;20010;-69
2022/12/26 06:55:10;;;;;;;32.17;18.00;;;9.60;92.10;;;;;;9176155;19;20011;-69
2022/12/26 06:58:14;;;;;;;31.98;18.08;;;9.60;92.10;;;;;;9177059;19;20484;-69
2022/12/26 07:01:19;;;;;;;32.50;17.83;;;9.60;92.10;;;;;;9175849;19;20022;-69
2022/12/26 07:04:25;;;;;;;29.65;16.80;;;9.60;92.10;;;;;;9173627;19;20538;-68
2022/12/26 07:07:29;;;;;;;27.38;16.92;;;9.50;92.10;;;;;;9177991;19;20066;-69
2022/12/26 07:10:36;;;;;;;29.17;16.15;;;9.60;92.10;;;;;;9177758;19;20036;-70
2022/12/26 07:13:40;;;;;;;37.13;17.35;;;9.50;92.10;;;;;;9176879;19;20026;-69
2022/12/26 07:16:45;;;;;;;26.92;16.45;;;9.50;92.10;;;;;;9177449;19;20642;-69
2022/12/26 07:19:51;;;;;;;26.67;15.82;;;9.50;92.00;;;;;;9178030;19;20535;-69
2022/12/26 07:22:55;;;;;;;28.52;15.95;;;9.50;92.00;;;;;;9177717;19;20014;-69
2022/12/26 07:26:00;;;;;;;25.25;14.63;;;9.50;92.10;;;;;;9176816;19;20015;-68
2022/12/26 07:29:04;;;;;;;26.33;15.65;;;9.50;92.10;;;;;;9172077;19;20018;-69
2022/12/26 07:32:07;;;;;;;25.40;15.00;;;9.50;92.10;;;;;;9174569;19;20007;-69
2022/12/26 07:35:13;;;;;;;;;;;9.50;92.10;;;;;;9175522;19;20017;-69
2022/12/26 07:38:17;;;;;;;22.88;13.02;;;9.50;92.10;;;;;;9184735;19;19925;-68
2022/12/26 07:44:41;;;;;;;20.35;11.25;;;9.50;92.10;;;;;;9174254;19;20049;-69
2022/12/26 07:47:45;;;;;;;16.75;11.20;;;9.50;92.10;;;;;;9176843;19;20019;-69
2022/12/26 07:50:51;;;;;;;16.90;9.80;;;9.50;92.10;;;;;;9177006;19;20519;-69
2022/12/26 07:53:55;;;;;;;16.40;9.68;;;9.50;92.20;;;;;;9174480;19;20027;-69
2022/12/26 07:56:58;;;;;;;18.35;9.45;;;9.50;92.20;;;;;;9177382;19;20490;-69
2022/12/26 08:00:22;;;;;;;18.33;9.02;;;9.50;92.10;;;;;;9177410;19;20015;-69
2022/12/26 08:03:26;;;;;;;14.85;8.30;;;9.50;92.40;;;;;;9168653;19;20498;-68
2022/12/26 08:06:32;;;;;;;;;;;9.50;92.20;;;;;;9176159;19;20047;-69
2022/12/26 08:09:37;;;;;;;14.63;8.55;;;9.50;92.20;;;;;;9175602;19;19939;-69
2022/12/26 08:12:40;;;;;;;12.77;8.32;;;9.40;92.10;;;;;;9173437;19;20014;-69
2022/12/26 08:15:44;;;;;;;19.25;7.90;;;9.50;92.20;;;;;;9168443;19;20018;-69
2022/12/26 08:18:48;;;;;;;11.65;7.32;;;9.50;92.20;;;;;;9172223;19;20014;-68
2022/12/26 08:21:54;;;;;;;;;;;9.50;92.20;;;;;;9175237;19;20064;-69
2022/12/26 08:24:58;;;;;;;11.88;7.72;;;9.50;92.20;;;;;;9180223;19;20309;-69
2022/12/26 08:28:01;;;;;;;13.55;7.45;;;9.50;92.20;;;;;;9181246;19;20015;-69
2022/12/26 08:31:07;;;;;;;13.48;7.43;;;9.50;92.20;;;;;;9175939;19;20018;-69
2022/12/26 08:34:12;;;;;;;14.40;7.70;;;9.50;92.20;;;;;;9175388;19;20025;-70
2022/12/26 08:37:17;;;;;;;17.08;7.88;;;9.50;92.20;;;;;;9176107;19;20018;-69
2022/12/26 08:40:21;;;;;;;12.98;7.13;;;9.50;92.20;;;;;;9177390;19;20047;-69
2022/12/26 08:43:48;;;;;;;14.57;7.60;;;9.50;92.20;;;;;;9176597;19;20483;-68
2022/12/26 08:47:12;;;;;;;14.43;7.55;;;9.50;92.20;;;;;;9168245;19;20011;-69
2022/12/26 08:50:16;;;;;;;17.10;7.72;;;9.50;92.20;;;;;;9176060;19;20015;-69
2022/12/26 08:53:21;;;;;;;;;;;9.50;92.20;;;;;;9175070;19;20014;-69
2022/12/26 08:56:27;;;;;;;11.90;7.68;;;9.60;92.20;;;;;;9176835;19;19925;-69
2022/12/26 08:59:31;;;;;;;11.32;7.05;;;9.60;92.20;;;;;;9176513;19;20007;-69
2022/12/26 09:02:35;;;;;;;15.05;7.18;;;9.60;92.20;;;;;;9174529;19;20096;-69
2022/12/26 09:05:38;;;;;;;;;;;9.60;92.20;;;;;;9175546;19;20495;-69
2022/12/26 09:08:44;;;;;;;11.27;6.43;;;9.60;92.20;;;;;;9180788;19;20362;-69
2022/12/26 09:11:48;;;;;;;11.07;6.90;;;9.70;92.20;;;;;;9179335;19;20031;-68
2022/12/26 09:14:52;;;;;;;14.45;7.40;;;9.60;92.20;;;;;;9178582;19;20023;-69
2022/12/26 09:17:56;;;;;;;9.13;7.00;;;9.70;92.30;;;;;;9171914;19;20011;-69
2022/12/26 09:21:01;;;;;;;12.10;6.10;;;9.70;92.30;;;;;;9172026;19;20704;-70
2022/12/26 09:24:10;;;;;;;19.15;6.45;;;9.80;92.30;;;;;;9175151;19;20031;-69
2022/12/26 09:27:14;;;;;;;9.90;6.05;;;9.80;92.30;;;;;;9167834;19;20021;-69
2022/12/26 09:30:18;;;;;;;;;;;9.90;92.40;;;;;;9174673;19;20013;-69
2022/12/26 09:33:22;;;;;;;14.45;5.68;;;9.90;92.40;;;;;;9177570;19;19925;-69
2022/12/26 09:36:27;;;;;;;;;;;10.00;92.30;;;;;;9178919;19;20040;-69
2022/12/26 09:39:33;;;;;;;9.88;4.93;;;10.00;92.30;;;;;;9176043;19;19914;-69
2022/12/26 09:42:44;;;;;;;9.10;5.10;;;10.10;92.30;;;;;;9175770;19;20010;-69
2022/12/26 09:46:04;;;;;;;8.45;4.32;;;10.10;92.30;;;;;;9176006;19;20400;-69
2022/12/26 09:49:13;;;;;;;7.32;4.00;;;10.20;92.30;;;;;;9174543;19;20014;-68
2022/12/26 09:52:23;;;;;;;9.52;3.28;;;10.20;92.30;;;;;;9177326;19;20017;-69
2022/12/26 09:55:36;;;;;;;7.82;3.47;;;10.30;92.30;;;;;;9174612;19;20018;-69
2022/12/26 09:58:46;;;;;;;11.10;3.43;;;10.30;92.20;;;;;;9176234;19;20039;-69
2022/12/26 10:01:51;;;;;;;9.38;3.33;;;10.40;92.20;;;;;;9175928;19;20587;-68
2022/12/26 10:04:55;;;;;;;10.65;3.10;;;10.40;92.20;;;;;;9167346;19;20014;-69
2022/12/26 10:08:05;;;;;;;9.50;3.53;;;10.40;92.20;;;;;;9166438;19;20014;-69
2022/12/26 10:11:19;;;;;;;6.93;3.00;;;10.40;92.20;;;;;;9163524;19;20043;-68
2022/12/26 10:14:38;;;;;;;8.60;3.15;;;10.40;92.20;;;;;;9159272;19;20021;-68
2022/12/26 10:17:50;;;;;;;6.55;3.03;;;10.50;92.10;;;;;;9163779;19;20038;-69
2022/12/26 10:21:20;;;;;;;13.20;3.03;;;10.50;92.10;;;;;;9162119;19;20054;-69
2022/12/26 10:24:26;;;;;;;7.15;2.85;;;10.50;92.10;;;;;;9156292;19;20022;-68
2022/12/26 10:27:40;;;;;;;7.68;3.00;;;10.50;92.00;;;;;;9160078;19;20039;-68
2022/12/26 10:30:46;;;;;;;12.57;3.00;;;10.50;92.10;;;;;;9160318;19;20457;-68
2022/12/26 10:33:57;;;;;;;7.55;3.00;;;10.50;92.00;;;;;;9161120;19;20045;-69
2022/12/26 10:37:05;;;;;;;7.43;2.88;;;10.50;92.00;;;;;;9160054;19;20023;-69
2022/12/26 10:40:20;;;;;;;8.98;2.50;;;10.50;92.00;;;;;;9164086;19;20059;-68
2022/12/26 10:43:31;;;;;;;6.80;2.50;;;10.50;92.00;;;;;;9162706;19;20056;-69
2022/12/26 10:46:52;;;;;;;8.02;2.60;;;10.50;92.00;;;;;;9160374;19;20610;-69
2022/12/26 10:49:58;;;;;;;4.90;2.50;;;10.50;92.00;;;;;;9160981;19;20025;-68
2022/12/26 10:53:07;;;;;;;11.52;2.65;;;10.50;92.00;;;;;;9165413;19;20448;-68
2022/12/26 10:56:11;;;;;;;6.80;2.10;;;10.50;92.00;;;;;;9157597;19;20030;-68
2022/12/26 10:59:30;;;;;;;13.57;2.25;;;10.60;92.00;;;;;;9158863;19;20022;-68
2022/12/26 11:02:34;;;;;;;16.45;2.63;;;10.50;92.00;;;;;;9156272;19;20014;-68
2022/12/26 11:05:41;;;;;;;13.07;2.55;;;10.50;91.90;;;;;;9157133;19;20086;-68
2022/12/26 11:09:07;;;;;;;14.98;1.73;;;10.50;91.80;;;;;;9166874;19;20088;-68
2022/12/26 11:12:22;;;;;;;9.95;2.30;;;10.40;91.70;;;;;;9179288;19;20014;-68
2022/12/26 11:15:33;;;;;;;16.92;1.98;;;10.30;91.60;;;;;;9182528;19;20073;-68
2022/12/26 11:18:40;;;;;;;9.35;1.98;;;10.20;91.50;;;;;;9185445;19;20119;-67
2022/12/26 11:21:47;;;;;;;11.15;1.83;;;10.10;91.50;;;;;;9189200;19;20011;-68
2022/12/26 11:25:17;;;;;;;10.32;2.55;;;10.00;91.40;;;;;;9189640;19;20022;-68
2022/12/26 11:28:33;;;;;;;8.25;1.95;;;9.90;91.30;;;;;;9184411;19;20086;-68
2022/12/26 11:31:42;;;;;;;9.60;1.63;;;9.90;91.40;;;;;;9179327;19;20026;-69
2022/12/26 11:34:48;;;;;;;7.53;1.58;;;9.80;91.40;;;;;;9180037;19;20019;-68
2022/12/26 11:37:55;;;;;;;19.35;1.85;;;9.70;91.30;;;;;;9182661;19;21634;-70
2022/12/26 11:44:27;;;;;;;9.48;1.50;;;9.60;91.30;;;;;;9180453;19;20459;-69
2022/12/26 11:47:33;;;;;;;16.02;1.90;;;9.50;91.30;;;;;;9183231;19;20034;-69
2022/12/26 11:50:47;;;;;;;10.15;1.38;;;9.50;91.30;;;;;;9182075;19;20047;-68
2022/12/26 11:53:51;;;;;;;14.32;2.15;;;9.40;91.30;;;;;;9179388;19;20018;-67
2022/12/26 11:57:14;;;;;;;10.10;1.83;;;9.40;91.30;;;;;;9189321;19;20045;-67
2022/12/26 12:00:23;;;;;;;5.28;1.27;;;9.40;91.30;;;;;;9189224;19;20006;-68
2022/12/26 12:03:34;;;;;;;11.85;2.00;;;9.30;91.30;;;;;;9181026;19;20044;-69
2022/12/26 12:07:00;;;;;;;6.47;1.42;;;9.30;91.30;;;;;;9188821;19;20014;-68
2022/12/26 12:10:19;;;;;;;7.07;1.30;;;9.20;91.20;;;;;;9178393;19;20054;-68
2022/12/26 12:13:37;;;;;;;8.75;1.40;;;9.20;91.20;;;;;;9181676;19;20467;-69
2022/12/26 12:16:53;;;;;;;21.08;2.17;;;9.20;91.50;;;;;;9180989;19;20015;-68
2022/12/26 12:20:16;;;;;;;2.15;0.70;;;9.10;91.20;;;;;;9182544;19;20025;-68
2022/12/26 12:23:43;;;;;;;15.70;1.17;;;9.10;91.20;;;;;;9175691;19;20106;-68
2022/12/26 12:26:54;;;;;;;16.17;2.38;;;9.10;91.20;;;;;;9174420;19;20487;-69
2022/12/26 12:30:18;;;;;;;10.50;2.22;;;9.10;91.20;;;;;;9173933;19;20040;-70
2022/12/26 12:33:36;;;;;;;15.55;1.63;;;9.10;91.20;;;;;;9176179;19;20026;-68
2022/12/26 12:36:55;;;;;;;4.55;1.30;;;9.00;91.10;;;;;;9175141;19;20040;-68
2022/12/26 12:40:05;;;;;;;11.90;1.50;;;9.00;91.10;;;;;;9168998;19;20037;-68
2022/12/26 12:43:17;;;;;;;10.15;2.20;;;9.00;91.10;;;;;;9174142;19;20019;-68
2022/12/26 12:46:30;;;;;;;13.48;1.25;;;9.00;91.10;;;;;;9172970;19;20392;-67
2022/12/26 12:49:50;;;;;;;6.72;1.73;;;9.00;91.10;;;;;;9172374;19;20072;-68
2022/12/26 12:53:05;;;;;;;3.22;0.70;;;9.00;91.10;;;;;;9172509;19;20090;-68
2022/12/26 12:56:21;;;;;;;7.72;1.30;;;9.00;91.00;;;;;;9168990;19;20342;-69
2022/12/26 12:59:33;;;;;;;9.85;1.30;;;9.00;91.00;;;;;;9171689;19;20435;-68
2022/12/26 13:02:41;;;;;;;6.65;1.10;;;8.90;91.00;;;;;;9170413;19;20014;-68
2022/12/26 13:05:51;;;;;;;15.65;1.25;;;8.90;91.00;;;;;;9165994;19;20040;-68
2022/12/26 13:09:02;;;;;;;7.50;1.83;;;8.90;91.00;;;;;;9168202;19;20502;-69
2022/12/26 13:12:08;;;;;;;12.77;1.45;;;8.90;90.90;;;;;;9168082;19;20023;-69
2022/12/26 13:15:28;;;;;;;9.38;1.27;;;8.90;90.90;;;;;;9168394;19;20018;-68
2022/12/26 13:18:36;;;;;;;10.68;1.27;;;8.80;90.90;;;;;;9168337;19;20390;-68
2022/12/26 13:21:41;;;;;;;9.52;1.10;;;8.80;90.80;;;;;;9170307;19;20021;-68
2022/12/26 13:24:51;;;;;;;8.20;1.30;;;8.70;90.90;;;;;;9171747;19;20027;-67
2022/12/26 13:28:08;;;;;;;13.07;2.67;;;8.70;90.80;;;;;;9169445;19;20329;-68
2022/12/26 13:31:12;;;;;;;11.25;1.40;;;8.70;90.90;;;;;;9169907;19;20015;-68
2022/12/26 13:34:18;;;;;;;6.93;1.00;;;8.70;90.80;;;;;;9167367;19;20048;-68
2022/12/26 13:37:58;;;;;;;3.97;1.10;;;8.70;90.80;;;;;;9163113;19;20025;-68
2022/12/26 13:44:27;;;;;;;6.72;1.27;;;8.60;90.70;;;;;;9170135;19;20014;-69
2022/12/26 13:47:37;;;;;;;22.30;3.55;;;8.60;90.70;;;;;;9169332;19;20068;-68
2022/12/26 13:50:49;;;;;;;14.35;1.35;;;8.60;90.70;;;;;;9170950;19;20464;-69
2022/12/26 13:54:03;;;;;;;9.73;2.05;;;8.50;90.70;;;;;;9168510;19;20014;-68
2022/12/26 13:57:38;;;;;;;10.13;1.90;;;8.50;90.70;;;;;;9167157;19;20022;-69
2022/12/26 14:00:45;;;;;;;8.80;2.10;;;8.50;90.60;;;;;;9170154;19;20393;-69
2022/12/26 14:04:15;;;;;;;9.25;1.90;;;8.50;90.70;;;;;;9160380;19;20022;-68
2022/12/26 14:07:28;;;;;;;6.07;1.55;;;8.40;90.60;;;;;;9167545;19;20029;-69
2022/12/26 14:10:42;;;;;;;9.57;2.15;;;8.40;90.60;;;;;;9168966;19;20606;-69
2022/12/26 14:14:02;;;;;;;3.95;1.45;;;8.40;90.60;;;;;;9167327;19;20022;-67
2022/12/26 14:17:16;;;;;;;10.07;1.80;;;8.40;90.60;;;;;;9169659;19;20026;-67
2022/12/26 14:20:42;;;;;;;9.60;1.92;;;8.30;90.60;;;;;;9169304;19;20027;-70
2022/12/26 14:23:52;;;;;;;6.25;1.60;;;8.30;90.60;;;;;;9170736;19;20112;-70
2022/12/26 14:27:02;;;;;;;11.88;1.75;;;8.30;90.60;;;;;;9173170;19;20025;-68
2022/12/26 14:30:24;;;;;;;7.57;1.48;;;8.30;90.60;;;;;;9171487;19;20648;-69
2022/12/26 14:33:34;;;;;;;8.27;1.23;;;8.30;90.60;;;;;;9169083;19;20019;-69
2022/12/26 14:36:46;;;;;;;8.15;1.50;;;8.30;90.70;;;;;;9167395;19;20033;-69
2022/12/26 14:40:04;;;;;;;10.60;2.10;;;8.30;90.70;;;;;;9171097;19;20029;-69
2022/12/26 14:43:34;;;;;;;5.82;2.25;;;8.30;90.60;;;;;;9171225;19;20506;-69
2022/12/26 14:46:59;;;;;;;11.68;2.25;;;8.30;90.60;;;;;;9169785;19;20027;-69
2022/12/26 14:50:39;;;;;;;11.65;2.38;;;8.30;90.60;;;;;;9171669;19;20022;-69
2022/12/26 14:53:44;;;;;;;9.27;2.53;;;8.20;90.60;;;;;;9170411;19;20510;-69
2022/12/26 14:56:49;;;;;;;10.77;2.60;;;8.30;90.60;;;;;;9168635;19;20784;-69
2022/12/26 15:00:27;;;;;;;19.08;2.95;;;8.30;90.60;;;;;;9171497;19;20019;-69
2022/12/26 15:03:45;;;;;;;14.60;2.65;;;8.20;90.50;;;;;;9162251;19;20053;-69
2022/12/26 15:07:11;;;;;;;9.10;1.80;;;8.20;90.50;;;;;;9169849;19;20025;-68
2022/12/26 15:10:45;;;;;;;14.35;1.90;;;8.20;90.50;;;;;;9164146;19;20609;-69
2022/12/26 15:14:14;;;;;;;11.95;2.38;;;8.10;90.50;;;;;;9170460;19;20478;-69
2022/12/26 15:17:27;;;;;;;16.60;1.63;;;8.10;90.40;;;;;;9170801;19;20059;-68
2022/12/26 15:21:04;;;;;;;7.32;2.45;;;8.10;90.50;;;;;;9170018;19;20018;-69
2022/12/26 15:24:35;;;;;;;15.55;2.78;;;8.10;90.40;;;;;;9170628;19;20014;-68
2022/12/26 15:28:39;;;;;;;12.82;2.10;;;8.00;90.40;;;;;;9171327;19;20018;-68
2022/12/26 15:32:10;;;;;;;14.10;1.80;;;8.00;90.40;;;;;;9168135;19;20011;-68
2022/12/26 15:35:22;;;;;;;12.48;2.03;;;7.90;90.30;;;;;;9168267;19;20492;-68
2022/12/26 15:38:37;;;;;;;8.40;2.00;;;7.90;90.30;;;;;;9170555;19;20014;-69
2022/12/26 15:41:47;;;;;;;8.23;1.73;;;7.90;90.30;;;;;;9168391;19;20420;-68
2022/12/26 15:44:58;;;;;;;12.30;2.35;;;7.90;90.30;;;;;;9167718;19;20352;-69
2022/12/26 15:48:07;;;;;;;12.75;1.65;;;7.80;90.30;;;;;;9169380;19;20014;-68
2022/12/26 15:51:16;;;;;;;18.83;2.97;;;7.80;90.30;;;;;;9167800;19;20019;-68
2022/12/26 15:54:44;;;;;;;9.77;1.83;;;7.80;90.30;;;;;;9170241;19;20022;-69
2022/12/26 15:57:56;;;;;;;14.00;2.03;;;7.70;90.30;;;;;;9174649;19;20047;-69
2022/12/26 16:01:01;;;;;;;11.35;2.38;;;7.70;90.30;;;;;;9175902;19;20631;-69
2022/12/26 16:04:07;;;;;;;11.70;3.28;;;7.70;90.30;;;;;;9174044;19;20472;-68
2022/12/26 16:07:24;;;;;;;16.15;2.83;;;7.60;90.30;;;;;;9179913;19;20029;-68
2022/12/26 16:10:33;;;;;;;14.35;2.33;;;7.60;90.30;;;;;;9183095;19;20010;-69
2022/12/26 16:13:49;;;;;;;14.70;2.08;;;7.60;90.30;;;;;;9183357;19;20011;-68
2022/12/26 16:16:53;;;;;;;18.23;3.03;;;7.60;90.30;;;;;;9180335;19;20010;-69
2022/12/26 16:19:57;;;;;;;10.63;2.72;;;7.50;90.20;;;;;;9183940;19;20021;-69
2022/12/26 16:22:59;;;;;;;11.02;2.13;;;7.50;90.20;;;;;;9183542;19;20025;-69
2022/12/26 16:26:05;;;;;;;13.80;2.72;;;7.40;90.20;;;;;;9182511;19;20023;-69
2022/12/26 16:29:11;;;;;;;10.65;2.10;;;7.40;90.20;;;;;;9183472;19;20011;-68
2022/12/26 16:32:21;;;;;;;16.85;2.03;;;7.30;90.10;;;;;;9181463;19;20471;-67
2022/12/26 16:35:29;;;;;;;5.40;1.75;;;7.30;90.10;;;;;;9181070;19;20017;-69
2022/12/26 16:38:34;;;;;;;9.55;2.50;;;7.30;90.10;;;;;;9182620;19;20010;-70
2022/12/26 16:41:58;;;;;;;17.85;2.42;;;7.20;90.10;;;;;;9181009;19;20035;-69
2022/12/26 16:45:03;;;;;;;12.95;2.25;;;7.20;90.10;;;;;;9183918;19;20811;-70
2022/12/26 16:48:09;;;;;;;11.23;2.22;;;7.20;90.10;;;;;;9180461;19;20043;-67
2022/12/26 16:51:34;;;;;;;13.40;2.63;;;7.10;90.10;;;;;;9178900;19;20007;-68
2022/12/26 16:54:41;;;;;;;7.18;2.53;;;7.10;90.10;;;;;;9180008;19;20092;-69
2022/12/26 16:57:47;;;;;;;7.07;2.17;;;7.10;90.10;;;;;;9176072;19;20018;-69
2022/12/26 17:01:13;;;;;;;14.98;2.58;;;7.00;90.10;;;;;;9169392;19;20022;-69
2022/12/26 17:04:21;;;;;;;11.82;2.92;;;7.00;90.00;;;;;;9166964;19;20019;-69
2022/12/26 17:07:25;;;;;;;12.00;2.22;;;6.90;90.10;;;;;;9171490;19;20082;-68
2022/12/26 17:10:30;;;;;;;;;;;6.90;90.10;;;;;;9173374;19;20023;-69
2022/12/26 17:13:36;;;;;;;16.40;2.80;;;6.90;90.10;;;;;;9172206;19;19923;-69
2022/12/26 17:16:40;;;;;;;16.48;2.80;;;6.80;90.00;;;;;;9170379;19;20034;-69
2022/12/26 17:19:43;;;;;;;;;;;6.80;90.00;;;;;;9173860;19;20026;-67
2022/12/26 17:22:54;;;;;;;10.07;2.72;;;6.80;90.00;;;;;;9172815;19;19947;-69
2022/12/26 17:26:19;;;;;;;10.30;2.53;;;6.70;90.00;;;;;;9170567;19;20022;-69
2022/12/26 17:29:56;;;;;;;19.63;4.15;;;6.70;90.00;;;;;;9171230;19;20048;-69
2022/12/26 17:33:04;;;;;;;14.50;3.30;;;6.60;90.00;;;;;;9168608;19;20022;-68
2022/12/26 17:36:13;;;;;;;16.55;3.30;;;6.60;90.00;;;;;;9168488;19;20018;-69
2022/12/26 17:39:37;;;;;;;23.90;2.80;;;6.50;90.30;;;;;;9173047;19;20464;-69
2022/12/26 17:42:47;;;;;;;14.50;2.97;;;6.50;90.00;;;;;;9172031;19;20502;-69
2022/12/26 17:45:53;;;;;;;15.32;3.20;;;6.50;90.00;;;;;;9169575;19;20054;-68
2022/12/26 17:48:57;;;;;;;8.35;3.00;;;6.40;89.90;;;;;;9169156;19;20014;-69
2022/12/26 17:52:00;;;;;;;12.80;2.80;;;6.40;89.90;;;;;;9171385;19;20682;-69
2022/12/26 17:55:14;;;;;;;8.77;2.67;;;6.30;90.00;;;;;;9168308;19;20047;-68
2022/12/26 17:58:17;;;;;;;14.65;2.33;;;6.30;89.90;;;;;;9171519;19;20039;-68
2022/12/26 18:01:23;;;;;;;9.13;2.13;;;6.30;89.90;;;;;;9170030;19;20033;-68
2022/12/26 18:04:27;;;;;;;16.70;2.70;;;6.20;89.80;;;;;;9167822;19;20035;-68
2022/12/26 18:07:31;;;;;;;10.88;2.63;;;6.20;89.90;;;;;;9169673;19;20025;-68
2022/12/26 18:10:37;;;;;;;12.80;1.88;;;6.20;89.80;;;;;;9171083;19;20022;-68
2022/12/26 18:13:43;;;;;;;12.77;2.33;;;6.10;89.80;;;;;;9172151;19;20022;-68
2022/12/26 18:16:50;;;;;;;10.95;2.70;;;6.10;89.80;;;;;;9169864;19;20472;-69
2022/12/26 18:19:54;;;;;;;11.60;3.00;;;6.10;89.80;;;;;;9171834;19;20047;-68
2022/12/26 18:22:58;;;;;;;8.45;2.40;;;6.00;89.70;;;;;;9171200;19;20039;-67
2022/12/26 18:26:03;;;;;;;;;;;6.00;89.70;;;;;;9173249;19;20594;-67
2022/12/26 18:29:07;;;;;;;15.95;2.70;;;5.90;89.70;;;;;;9172470;19;19915;-68
2022/12/26 18:32:24;;;;;;;18.50;2.45;;;5.90;89.60;;;;;;9170577;19;20044;-67
2022/12/26 18:35:28;;;;;;;9.25;2.17;;;5.90;89.60;;;;;;9171244;19;20022;-68